sensor_id;sensor_type;location;lat;lon;timestamp;pressure;altitude;pressure_sealevel;temperature;humidity
73600;BME280;61877;48.246;9.220;2023-07-31T00:02:25;94328.59;;;10.56;94.29
73600;BME280;61877;48.246;9.220;2023-07-31T00:04:50;94330.69;;;10.50;94.42
73600;BME280;61877;48.246;9.220;2023-07-31T00:07:16;94326.38;;;10.58;93.96
73600;BME280;61877;48.246;9.220;2023-07-31T00:09:41;94323.91;;;10.53;94.17
73600;BME280;61877;48.246;9.220;2023-07-31T00:12:07;94325.53;;;10.45;94.68
73600;BME280;61877;48.246;9.220;2023-07-31T00:14:33;94326.00;;;10.47;94.74
73600;BME280;61877;48.246;9.220;2023-07-31T00:16:58;94326.78;;;10.48;94.80
73600;BME280;61877;48.246;9.220;2023-07-31T00:19:25;94326.19;;;10.42;94.60
73600;BME280;61877;48.246;9.220;2023-07-31T00:21:50;94336.34;;;10.36;94.51
73600;BME280;61877;48.246;9.220;2023-07-31T00:24:16;94332.44;;;10.34;95.02
73600;BME280;61877;48.246;9.220;2023-07-31T00:26:41;94334.50;;;10.28;95.00
73600;BME280;61877;48.246;9.220;2023-07-31T00:29:06;94326.34;;;10.25;94.91
73600;BME280;61877;48.246;9.220;2023-07-31T00:31:32;94332.69;;;10.20;94.78
73600;BME280;61877;48.246;9.220;2023-07-31T00:33:57;94335.03;;;10.22;94.37
73600;BME280;61877;48.246;9.220;2023-07-31T00:36:24;94327.66;;;10.19;95.05
73600;BME280;61877;48.246;9.220;2023-07-31T00:38:49;94324.06;;;10.15;95.41
73600;BME280;61877;48.246;9.220;2023-07-31T00:41:15;94330.75;;;10.09;95.36
73600;BME280;61877;48.246;9.220;2023-07-31T00:43:40;94323.00;;;10.07;95.69
73600;BME280;61877;48.246;9.220;2023-07-31T00:46:06;94326.22;;;10.01;95.92
73600;BME280;61877;48.246;9.220;2023-07-31T00:48:32;94330.31;;;9.98;96.02
73600;BME280;61877;48.246;9.220;2023-07-31T00:50:58;94330.63;;;9.97;94.74
73600;BME280;61877;48.246;9.220;2023-07-31T00:53:25;94325.47;;;9.92;96.25
73600;BME280;61877;48.246;9.220;2023-07-31T00:55:51;94324.72;;;9.91;96.65
73600;BME280;61877;48.246;9.220;2023-07-31T00:58:17;94318.88;;;9.89;96.28
73600;BME280;61877;48.246;9.220;2023-07-31T01:00:42;94315.56;;;9.92;96.08
73600;BME280;61877;48.246;9.220;2023-07-31T01:03:08;94315.34;;;9.97;95.22
73600;BME280;61877;48.246;9.220;2023-07-31T01:05:38;94310.19;;;9.92;95.43
73600;BME280;61877;48.246;9.220;2023-07-31T01:08:08;94308.81;;;9.86;95.67
73600;BME280;61877;48.246;9.220;2023-07-31T01:10:45;94302.22;;;9.84;96.21
73600;BME280;61877;48.246;9.220;2023-07-31T01:13:11;94309.78;;;9.82;95.85
73600;BME280;61877;48.246;9.220;2023-07-31T01:15:37;94303.66;;;9.81;95.78
73600;BME280;61877;48.246;9.220;2023-07-31T01:18:03;94294.63;;;9.86;96.00
73600;BME280;61877;48.246;9.220;2023-07-31T01:20:29;94308.69;;;9.83;95.49
73600;BME280;61877;48.246;9.220;2023-07-31T01:23:13;94300.38;;;9.76;95.56
73600;BME280;61877;48.246;9.220;2023-07-31T01:25:59;94304.19;;;9.75;95.65
73600;BME280;61877;48.246;9.220;2023-07-31T01:28:33;94299.47;;;9.72;95.93
73600;BME280;61877;48.246;9.220;2023-07-31T01:31:02;94296.34;;;9.70;96.48
73600;BME280;61877;48.246;9.220;2023-07-31T01:33:32;94292.28;;;9.64;96.09
73600;BME280;61877;48.246;9.220;2023-07-31T01:35:58;94289.13;;;9.62;96.51
73600;BME280;61877;48.246;9.220;2023-07-31T01:38:24;94294.66;;;9.57;95.90
73600;BME280;61877;48.246;9.220;2023-07-31T01:40:51;94288.41;;;9.53;96.27
73600;BME280;61877;48.246;9.220;2023-07-31T01:43:18;94284.94;;;9.52;96.60
73600;BME280;61877;48.246;9.220;2023-07-31T01:45:43;94284.63;;;9.54;96.96
73600;BME280;61877;48.246;9.220;2023-07-31T01:48:09;94282.59;;;9.51;96.41
73600;BME280;61877;48.246;9.220;2023-07-31T01:50:34;94270.84;;;9.43;96.61
73600;BME280;61877;48.246;9.220;2023-07-31T01:52:59;94275.41;;;9.43;96.43
73600;BME280;61877;48.246;9.220;2023-07-31T01:55:25;94274.47;;;9.39;96.66
73600;BME280;61877;48.246;9.220;2023-07-31T01:57:50;94272.91;;;9.38;96.62
73600;BME280;61877;48.246;9.220;2023-07-31T02:00:17;94272.91;;;9.38;96.60
73600;BME280;61877;48.246;9.220;2023-07-31T02:02:43;94267.88;;;9.36;96.62
73600;BME280;61877;48.246;9.220;2023-07-31T02:05:08;94265.81;;;9.42;96.75
73600;BME280;61877;48.246;9.220;2023-07-31T02:07:34;94268.22;;;9.35;96.63
73600;BME280;61877;48.246;9.220;2023-07-31T02:09:59;94268.06;;;9.31;96.35
73600;BME280;61877;48.246;9.220;2023-07-31T02:12:25;94268.72;;;9.28;96.32
73600;BME280;61877;48.246;9.220;2023-07-31T02:14:50;94264.28;;;9.32;96.21
73600;BME280;61877;48.246;9.220;2023-07-31T02:17:17;94260.66;;;9.37;95.38
73600;BME280;61877;48.246;9.220;2023-07-31T02:19:42;94261.28;;;9.34;95.78
73600;BME280;61877;48.246;9.220;2023-07-31T02:22:08;94255.91;;;9.34;96.30
73600;BME280;61877;48.246;9.220;2023-07-31T02:24:33;94255.72;;;9.39;96.67
73600;BME280;61877;48.246;9.220;2023-07-31T02:26:59;94247.50;;;9.44;96.45
73600;BME280;61877;48.246;9.220;2023-07-31T02:29:24;94242.47;;;9.42;96.76
73600;BME280;61877;48.246;9.220;2023-07-31T02:31:49;94241.25;;;9.40;94.69
73600;BME280;61877;48.246;9.220;2023-07-31T02:34:16;94244.78;;;9.32;95.06
73600;BME280;61877;48.246;9.220;2023-07-31T02:36:41;94247.19;;;9.25;95.55
73600;BME280;61877;48.246;9.220;2023-07-31T02:39:07;94244.53;;;9.16;95.51
73600;BME280;61877;48.246;9.220;2023-07-31T02:41:32;94242.84;;;9.11;95.39
73600;BME280;61877;48.246;9.220;2023-07-31T02:43:58;94239.72;;;9.09;95.22
73600;BME280;61877;48.246;9.220;2023-07-31T02:46:23;94235.66;;;9.03;95.90
73600;BME280;61877;48.246;9.220;2023-07-31T02:48:48;94242.75;;;8.99;96.54
73600;BME280;61877;48.246;9.220;2023-07-31T02:51:15;94242.28;;;8.97;96.51
73600;BME280;61877;48.246;9.220;2023-07-31T02:53:40;94238.38;;;8.95;96.84
73600;BME280;61877;48.246;9.220;2023-07-31T02:56:06;94240.44;;;8.89;95.89
73600;BME280;61877;48.246;9.220;2023-07-31T02:58:31;94240.44;;;8.89;97.19
73600;BME280;61877;48.246;9.220;2023-07-31T03:00:58;94241.22;;;8.90;96.35
73600;BME280;61877;48.246;9.220;2023-07-31T03:03:23;94243.91;;;8.90;97.01
73600;BME280;61877;48.246;9.220;2023-07-31T03:05:48;94236.22;;;8.88;96.94
73600;BME280;61877;48.246;9.220;2023-07-31T03:08:15;94234.16;;;8.85;96.96
73600;BME280;61877;48.246;9.220;2023-07-31T03:10:41;94229.13;;;8.84;96.74
73600;BME280;61877;48.246;9.220;2023-07-31T03:13:06;94234.63;;;8.87;97.17
73600;BME280;61877;48.246;9.220;2023-07-31T03:15:31;94236.53;;;8.87;96.44
73600;BME280;61877;48.246;9.220;2023-07-31T03:17:57;94240.75;;;8.88;96.56
73600;BME280;61877;48.246;9.220;2023-07-31T03:20:22;94237.47;;;8.82;96.85
73600;BME280;61877;48.246;9.220;2023-07-31T03:22:48;94240.94;;;8.83;96.41
73600;BME280;61877;48.246;9.220;2023-07-31T03:25:14;94227.09;;;8.81;96.47
73600;BME280;61877;48.246;9.220;2023-07-31T03:27:40;94230.75;;;8.76;96.53
73600;BME280;61877;48.246;9.220;2023-07-31T03:30:06;94227.47;;;8.71;97.59
73600;BME280;61877;48.246;9.220;2023-07-31T03:32:32;94229.63;;;8.77;97.43
73600;BME280;61877;48.246;9.220;2023-07-31T03:34:58;94231.53;;;8.77;96.68
73600;BME280;61877;48.246;9.220;2023-07-31T03:37:23;94220.06;;;8.76;97.23
73600;BME280;61877;48.246;9.220;2023-07-31T03:39:49;94224.47;;;8.72;96.29
73600;BME280;61877;48.246;9.220;2023-07-31T03:42:15;94225.25;;;8.73;96.79
73600;BME280;61877;48.246;9.220;2023-07-31T03:44:41;94215.03;;;8.75;96.63
73600;BME280;61877;48.246;9.220;2023-07-31T03:47:06;94226.97;;;8.77;97.46
73600;BME280;61877;48.246;9.220;2023-07-31T03:49:31;94233.91;;;8.78;97.05
73600;BME280;61877;48.246;9.220;2023-07-31T03:51:57;94241.59;;;8.80;97.20
73600;BME280;61877;48.246;9.220;2023-07-31T03:54:22;94245.19;;;8.84;96.47
73600;BME280;61877;48.246;9.220;2023-07-31T03:56:48;94245.50;;;8.82;96.47
73600;BME280;61877;48.246;9.220;2023-07-31T03:59:14;94247.06;;;8.92;96.97
73600;BME280;61877;48.246;9.220;2023-07-31T04:01:40;94240.06;;;8.99;96.22
73600;BME280;61877;48.246;9.220;2023-07-31T04:04:05;94241.53;;;8.97;95.27
73600;BME280;61877;48.246;9.220;2023-07-31T04:06:31;94236.47;;;8.95;95.80
73600;BME280;61877;48.246;9.220;2023-07-31T04:08:56;94237.59;;;8.94;96.14
73600;BME280;61877;48.246;9.220;2023-07-31T04:11:21;94227.69;;;8.95;96.16
73600;BME280;61877;48.246;9.220;2023-07-31T04:13:47;94226.50;;;9.04;95.65
73600;BME280;61877;48.246;9.220;2023-07-31T04:16:14;94225.66;;;9.12;95.62
73600;BME280;61877;48.246;9.220;2023-07-31T04:18:39;94235.53;;;9.21;95.63
73600;BME280;61877;48.246;9.220;2023-07-31T04:21:05;94233.00;;;9.24;96.07
73600;BME280;61877;48.246;9.220;2023-07-31T04:23:30;94232.28;;;9.36;95.54
73600;BME280;61877;48.246;9.220;2023-07-31T04:25:55;94226.28;;;9.39;94.81
73600;BME280;61877;48.246;9.220;2023-07-31T04:28:21;94228.91;;;9.47;94.93
73600;BME280;61877;48.246;9.220;2023-07-31T04:30:46;94232.31;;;9.56;94.56
73600;BME280;61877;48.246;9.220;2023-07-31T04:33:13;94231.13;;;9.66;94.12
73600;BME280;61877;48.246;9.220;2023-07-31T04:35:39;94235.63;;;9.74;93.76
73600;BME280;61877;48.246;9.220;2023-07-31T04:38:04;94224.38;;;9.80;93.97
73600;BME280;61877;48.246;9.220;2023-07-31T04:40:29;94227.19;;;9.84;92.91
73600;BME280;61877;48.246;9.220;2023-07-31T04:42:55;94224.50;;;9.84;92.75
73600;BME280;61877;48.246;9.220;2023-07-31T04:45:20;94213.47;;;9.85;92.91
73600;BME280;61877;48.246;9.220;2023-07-31T04:47:46;94206.91;;;9.95;92.77
73600;BME280;61877;48.246;9.220;2023-07-31T04:50:12;94209.28;;;9.96;92.66
73600;BME280;61877;48.246;9.220;2023-07-31T04:52:38;94200.91;;;9.98;92.45
73600;BME280;61877;48.246;9.220;2023-07-31T04:55:04;94201.03;;;10.01;92.08
73600;BME280;61877;48.246;9.220;2023-07-31T04:57:29;94210.13;;;10.09;92.22
73600;BME280;61877;48.246;9.220;2023-07-31T04:59:54;94216.94;;;10.18;91.43
73600;BME280;61877;48.246;9.220;2023-07-31T05:02:20;94213.09;;;10.28;92.61
73600;BME280;61877;48.246;9.220;2023-07-31T05:04:45;94217.78;;;10.43;92.23
73600;BME280;61877;48.246;9.220;2023-07-31T05:07:12;94213.34;;;10.47;90.72
73600;BME280;61877;48.246;9.220;2023-07-31T05:09:38;94203.72;;;10.58;90.88
73600;BME280;61877;48.246;9.220;2023-07-31T05:12:05;94210.88;;;10.66;89.90
73600;BME280;61877;48.246;9.220;2023-07-31T05:14:30;94210.91;;;10.78;89.89
73600;BME280;61877;48.246;9.220;2023-07-31T05:16:55;94213.94;;;10.89;88.77
73600;BME280;61877;48.246;9.220;2023-07-31T05:19:21;94216.81;;;11.08;88.41
73600;BME280;61877;48.246;9.220;2023-07-31T05:21:46;94211.13;;;11.21;88.02
73600;BME280;61877;48.246;9.220;2023-07-31T05:24:13;94192.09;;;11.26;87.41
73600;BME280;61877;48.246;9.220;2023-07-31T05:26:38;94199.44;;;11.41;87.29
73600;BME280;61877;48.246;9.220;2023-07-31T05:29:04;94199.44;;;11.65;86.71
73600;BME280;61877;48.246;9.220;2023-07-31T05:31:29;94200.97;;;11.66;85.26
73600;BME280;61877;48.246;9.220;2023-07-31T05:33:55;94205.22;;;11.67;84.62
73600;BME280;61877;48.246;9.220;2023-07-31T05:36:20;94195.09;;;11.89;84.86
73600;BME280;61877;48.246;9.220;2023-07-31T05:38:45;94201.72;;;12.07;85.16
73600;BME280;61877;48.246;9.220;2023-07-31T05:41:12;94204.34;;;12.19;85.30
73600;BME280;61877;48.246;9.220;2023-07-31T05:43:38;94200.00;;;12.42;84.29
73600;BME280;61877;48.246;9.220;2023-07-31T05:46:03;94196.84;;;12.40;84.98
73600;BME280;61877;48.246;9.220;2023-07-31T05:48:29;94200.44;;;12.59;85.38
73600;BME280;61877;48.246;9.220;2023-07-31T05:50:54;94201.81;;;12.69;85.71
73600;BME280;61877;48.246;9.220;2023-07-31T05:53:20;94201.03;;;12.84;85.53
73600;BME280;61877;48.246;9.220;2023-07-31T05:55:45;94205.84;;;13.06;84.76
73600;BME280;61877;48.246;9.220;2023-07-31T05:58:12;94210.00;;;13.19;84.06
73600;BME280;61877;48.246;9.220;2023-07-31T06:00:37;94211.25;;;13.41;83.67
73600;BME280;61877;48.246;9.220;2023-07-31T06:03:03;94208.84;;;13.55;82.96
73600;BME280;61877;48.246;9.220;2023-07-31T06:05:28;94210.44;;;13.75;81.88
73600;BME280;61877;48.246;9.220;2023-07-31T06:07:54;94210.16;;;13.80;80.76
73600;BME280;61877;48.246;9.220;2023-07-31T06:10:19;94207.03;;;13.78;80.81
73600;BME280;61877;48.246;9.220;2023-07-31T06:12:45;94200.47;;;13.94;80.35
73600;BME280;61877;48.246;9.220;2023-07-31T06:15:11;94196.69;;;14.18;80.08
73600;BME280;61877;48.246;9.220;2023-07-31T06:17:37;94192.56;;;14.43;80.19
73600;BME280;61877;48.246;9.220;2023-07-31T06:20:03;94188.69;;;14.63;79.52
73600;BME280;61877;48.246;9.220;2023-07-31T06:22:28;94179.13;;;14.69;79.81
73600;BME280;61877;48.246;9.220;2023-07-31T06:24:54;94179.00;;;14.85;80.48
73600;BME280;61877;48.246;9.220;2023-07-31T06:27:19;94198.47;;;14.94;79.75
73600;BME280;61877;48.246;9.220;2023-07-31T06:29:44;94195.03;;;14.97;79.52
73600;BME280;61877;48.246;9.220;2023-07-31T06:32:11;94197.38;;;14.98;81.13
73600;BME280;61877;48.246;9.220;2023-07-31T06:34:37;94184.91;;;15.16;82.65
73600;BME280;61877;48.246;9.220;2023-07-31T06:37:02;94187.59;;;15.39;81.61
73600;BME280;61877;48.246;9.220;2023-07-31T06:39:28;94186.44;;;15.66;80.24
73600;BME280;61877;48.246;9.220;2023-07-31T06:41:53;94185.31;;;15.97;79.61
73600;BME280;61877;48.246;9.220;2023-07-31T06:44:18;94180.09;;;16.14;79.06
73600;BME280;61877;48.246;9.220;2023-07-31T06:46:44;94185.50;;;16.47;77.65
73600;BME280;61877;48.246;9.220;2023-07-31T06:49:10;94178.59;;;16.94;75.84
73600;BME280;61877;48.246;9.220;2023-07-31T06:51:36;94180.47;;;17.37;75.10
73600;BME280;61877;48.246;9.220;2023-07-31T06:54:01;94171.09;;;17.24;72.97
73600;BME280;61877;48.246;9.220;2023-07-31T06:56:27;94165.13;;;17.04;73.24
73600;BME280;61877;48.246;9.220;2023-07-31T06:58:52;94165.88;;;16.98;73.44
73600;BME280;61877;48.246;9.220;2023-07-31T07:01:18;94167.13;;;17.11;74.01
73600;BME280;61877;48.246;9.220;2023-07-31T07:03:43;94167.88;;;17.08;73.70
73600;BME280;61877;48.246;9.220;2023-07-31T07:06:10;94162.03;;;17.02;74.07
73600;BME280;61877;48.246;9.220;2023-07-31T07:08:35;94160.94;;;17.14;73.54
73600;BME280;61877;48.246;9.220;2023-07-31T07:11:00;94165.69;;;17.27;73.69
73600;BME280;61877;48.246;9.220;2023-07-31T07:13:26;94149.06;;;17.32;73.98
73600;BME280;61877;48.246;9.220;2023-07-31T07:15:51;94161.03;;;17.28;73.11
73600;BME280;61877;48.246;9.220;2023-07-31T07:18:17;94156.75;;;17.23;73.18
73600;BME280;61877;48.246;9.220;2023-07-31T07:20:46;94164.94;;;17.30;73.91
73600;BME280;61877;48.246;9.220;2023-07-31T07:23:13;94161.28;;;17.56;73.02
73600;BME280;61877;48.246;9.220;2023-07-31T07:25:39;94170.81;;;18.00;69.92
73600;BME280;61877;48.246;9.220;2023-07-31T07:28:04;94160.84;;;18.36;67.88
73600;BME280;61877;48.246;9.220;2023-07-31T07:30:29;94161.28;;;18.52;68.34
73600;BME280;61877;48.246;9.220;2023-07-31T07:32:55;94158.19;;;18.57;67.61
73600;BME280;61877;48.246;9.220;2023-07-31T07:35:20;94153.59;;;18.89;65.87
73600;BME280;61877;48.246;9.220;2023-07-31T07:37:48;94153.97;;;19.05;65.01
73600;BME280;61877;48.246;9.220;2023-07-31T07:40:15;94145.44;;;19.35;61.85
73600;BME280;61877;48.246;9.220;2023-07-31T07:42:40;94149.97;;;19.94;59.92
73600;BME280;61877;48.246;9.220;2023-07-31T07:45:06;94141.69;;;20.29;60.95
73600;BME280;61877;48.246;9.220;2023-07-31T07:47:32;94135.97;;;19.89;55.92
73600;BME280;61877;48.246;9.220;2023-07-31T07:49:57;94138.22;;;20.11;54.59
73600;BME280;61877;48.246;9.220;2023-07-31T07:52:23;94140.53;;;20.23;52.30
73600;BME280;61877;48.246;9.220;2023-07-31T07:54:48;94136.38;;;19.94;50.29
73600;BME280;61877;48.246;9.220;2023-07-31T07:57:15;94138.41;;;19.55;51.94
73600;BME280;61877;48.246;9.220;2023-07-31T07:59:41;94146.97;;;18.94;52.17
73600;BME280;61877;48.246;9.220;2023-07-31T08:02:06;94147.00;;;18.83;53.85
73600;BME280;61877;48.246;9.220;2023-07-31T08:04:31;94153.94;;;18.77;53.22
73600;BME280;61877;48.246;9.220;2023-07-31T08:06:57;94159.75;;;18.58;53.97
73600;BME280;61877;48.246;9.220;2023-07-31T08:09:22;94158.22;;;18.75;52.86
73600;BME280;61877;48.246;9.220;2023-07-31T08:11:48;94151.25;;;19.05;52.81
73600;BME280;61877;48.246;9.220;2023-07-31T08:14:14;94141.56;;;19.36;52.49
73600;BME280;61877;48.246;9.220;2023-07-31T08:16:40;94151.59;;;19.74;50.34
73600;BME280;61877;48.246;9.220;2023-07-31T08:19:05;94148.50;;;19.65;50.25
73600;BME280;61877;48.246;9.220;2023-07-31T08:21:31;94152.00;;;19.52;51.39
73600;BME280;61877;48.246;9.220;2023-07-31T08:23:56;94148.53;;;19.55;50.75
73600;BME280;61877;48.246;9.220;2023-07-31T08:26:22;94138.00;;;19.64;50.84
73600;BME280;61877;48.246;9.220;2023-07-31T08:28:50;94132.56;;;19.57;50.56
73600;BME280;61877;48.246;9.220;2023-07-31T08:31:17;94132.13;;;19.86;49.53
73600;BME280;61877;48.246;9.220;2023-07-31T08:33:42;94118.00;;;20.09;48.62
73600;BME280;61877;48.246;9.220;2023-07-31T08:36:08;94117.91;;;20.33;50.27
73600;BME280;61877;48.246;9.220;2023-07-31T08:38:33;94111.34;;;20.24;49.91
73600;BME280;61877;48.246;9.220;2023-07-31T08:40:59;94107.81;;;20.34;48.46
73600;BME280;61877;48.246;9.220;2023-07-31T08:43:25;94095.44;;;20.19;48.95
73600;BME280;61877;48.246;9.220;2023-07-31T08:45:51;94093.09;;;20.17;49.59
73600;BME280;61877;48.246;9.220;2023-07-31T08:48:19;94086.78;;;20.34;49.56
73600;BME280;61877;48.246;9.220;2023-07-31T08:50:45;94096.88;;;20.41;48.05
73600;BME280;61877;48.246;9.220;2023-07-31T08:53:10;94095.50;;;21.21;47.65
73600;BME280;61877;48.246;9.220;2023-07-31T08:55:37;94101.81;;;21.55;45.93
73600;BME280;61877;48.246;9.220;2023-07-31T08:58:04;94098.53;;;21.30;45.61
73600;BME280;61877;48.246;9.220;2023-07-31T09:00:30;94110.22;;;21.31;47.59
73600;BME280;61877;48.246;9.220;2023-07-31T09:03:00;94101.25;;;21.67;49.57
73600;BME280;61877;48.246;9.220;2023-07-31T09:05:29;94104.09;;;21.16;46.77
73600;BME280;61877;48.246;9.220;2023-07-31T09:07:56;94106.47;;;20.60;46.94
73600;BME280;61877;48.246;9.220;2023-07-31T09:10:21;94111.56;;;20.58;46.80
73600;BME280;61877;48.246;9.220;2023-07-31T09:12:48;94101.53;;;20.44;48.17
73600;BME280;61877;48.246;9.220;2023-07-31T09:15:14;94107.88;;;20.82;48.57
73600;BME280;61877;48.246;9.220;2023-07-31T09:17:40;94106.28;;;21.35;46.93
73600;BME280;61877;48.246;9.220;2023-07-31T09:20:16;94113.59;;;21.01;48.05
73600;BME280;61877;48.246;9.220;2023-07-31T09:22:44;94108.69;;;20.75;48.28
73600;BME280;61877;48.246;9.220;2023-07-31T09:25:16;94107.44;;;20.90;48.77
73600;BME280;61877;48.246;9.220;2023-07-31T09:27:49;94097.28;;;20.91;47.35
73600;BME280;61877;48.246;9.220;2023-07-31T09:30:15;94105.81;;;21.00;47.58
73600;BME280;61877;48.246;9.220;2023-07-31T09:32:42;94097.81;;;20.72;48.59
73600;BME280;61877;48.246;9.220;2023-07-31T09:35:19;94096.19;;;20.78;48.13
73600;BME280;61877;48.246;9.220;2023-07-31T09:37:49;94092.31;;;21.26;47.15
73600;BME280;61877;48.246;9.220;2023-07-31T09:40:25;94089.47;;;21.77;47.25
73600;BME280;61877;48.246;9.220;2023-07-31T09:42:50;94080.38;;;22.21;46.63
73600;BME280;61877;48.246;9.220;2023-07-31T09:45:18;94085.81;;;23.05;42.95
73600;BME280;61877;48.246;9.220;2023-07-31T09:47:46;94084.16;;;22.84;44.60
73600;BME280;61877;48.246;9.220;2023-07-31T09:50:11;94089.84;;;22.43;45.70
73600;BME280;61877;48.246;9.220;2023-07-31T09:52:38;94081.34;;;22.91;42.84
73600;BME280;61877;48.246;9.220;2023-07-31T09:55:06;94068.97;;;22.83;42.43
73600;BME280;61877;48.246;9.220;2023-07-31T09:57:32;94069.56;;;22.94;42.76
73600;BME280;61877;48.246;9.220;2023-07-31T09:59:58;94052.72;;;22.42;43.13
73600;BME280;61877;48.246;9.220;2023-07-31T10:02:24;94050.06;;;22.09;45.45
73600;BME280;61877;48.246;9.220;2023-07-31T10:04:50;94059.03;;;22.39;44.51
73600;BME280;61877;48.246;9.220;2023-07-31T10:07:18;94054.97;;;23.00;43.76
73600;BME280;61877;48.246;9.220;2023-07-31T10:09:44;94040.97;;;23.18;42.32
73600;BME280;61877;48.246;9.220;2023-07-31T10:12:12;94022.63;;;24.00;44.31
73600;BME280;61877;48.246;9.220;2023-07-31T10:14:40;94020.28;;;25.02;42.63
73600;BME280;61877;48.246;9.220;2023-07-31T10:17:06;94022.03;;;25.57;42.38
73600;BME280;61877;48.246;9.220;2023-07-31T10:19:34;94015.88;;;25.82;41.89
73600;BME280;61877;48.246;9.220;2023-07-31T10:22:02;94010.72;;;26.37;42.14
73600;BME280;61877;48.246;9.220;2023-07-31T10:24:29;94001.25;;;25.56;39.98
73600;BME280;61877;48.246;9.220;2023-07-31T10:26:57;94007.13;;;25.26;42.58
73600;BME280;61877;48.246;9.220;2023-07-31T10:29:27;93999.94;;;25.61;41.77
73600;BME280;61877;48.246;9.220;2023-07-31T10:31:54;94006.16;;;26.18;40.52
73600;BME280;61877;48.246;9.220;2023-07-31T10:34:21;93994.06;;;25.75;40.73
73600;BME280;61877;48.246;9.220;2023-07-31T10:36:47;93992.50;;;26.02;40.21
73600;BME280;61877;48.246;9.220;2023-07-31T10:39:33;93998.16;;;26.99;38.71
73600;BME280;61877;48.246;9.220;2023-07-31T10:41:59;93984.50;;;26.96;40.55
73600;BME280;61877;48.246;9.220;2023-07-31T10:44:26;93977.91;;;27.40;40.10
73600;BME280;61877;48.246;9.220;2023-07-31T10:46:54;93970.88;;;26.80;39.38
73600;BME280;61877;48.246;9.220;2023-07-31T10:49:21;93970.88;;;26.29;40.15
73600;BME280;61877;48.246;9.220;2023-07-31T10:51:47;93967.31;;;26.04;41.16
73600;BME280;61877;48.246;9.220;2023-07-31T10:54:14;93972.97;;;24.82;41.23
73600;BME280;61877;48.246;9.220;2023-07-31T10:56:44;93976.19;;;25.95;39.59
73600;BME280;61877;48.246;9.220;2023-07-31T10:59:09;93971.66;;;26.67;38.87
73600;BME280;61877;48.246;9.220;2023-07-31T11:01:51;93978.91;;;26.61;40.93
73600;BME280;61877;48.246;9.220;2023-07-31T11:04:22;93970.44;;;26.31;40.05
73600;BME280;61877;48.246;9.220;2023-07-31T11:06:55;93975.75;;;25.97;39.69
73600;BME280;61877;48.246;9.220;2023-07-31T11:09:20;93974.38;;;26.17;39.05
73600;BME280;61877;48.246;9.220;2023-07-31T11:11:46;93976.66;;;27.07;37.76
73600;BME280;61877;48.246;9.220;2023-07-31T11:14:11;93968.13;;;26.42;39.46
73600;BME280;61877;48.246;9.220;2023-07-31T11:16:37;93974.81;;;26.03;39.80
73600;BME280;61877;48.246;9.220;2023-07-31T11:19:08;93984.25;;;25.61;40.08
73600;BME280;61877;48.246;9.220;2023-07-31T11:21:33;93972.03;;;24.73;40.12
73600;BME280;61877;48.246;9.220;2023-07-31T11:23:59;93963.34;;;24.42;42.54
73600;BME280;61877;48.246;9.220;2023-07-31T11:26:25;93962.88;;;24.11;43.03
73600;BME280;61877;48.246;9.220;2023-07-31T11:28:50;93974.63;;;23.73;42.03
73600;BME280;61877;48.246;9.220;2023-07-31T11:31:16;93962.06;;;23.75;43.65
73600;BME280;61877;48.246;9.220;2023-07-31T11:33:42;93961.06;;;23.85;44.23
73600;BME280;61877;48.246;9.220;2023-07-31T11:36:15;93958.44;;;23.62;44.31
73600;BME280;61877;48.246;9.220;2023-07-31T11:38:41;93962.28;;;24.04;45.23
73600;BME280;61877;48.246;9.220;2023-07-31T11:41:07;93960.53;;;23.74;43.17
73600;BME280;61877;48.246;9.220;2023-07-31T11:43:32;93958.28;;;23.30;44.34
73600;BME280;61877;48.246;9.220;2023-07-31T11:45:59;93963.06;;;23.65;44.07
73600;BME280;61877;48.246;9.220;2023-07-31T11:48:26;93958.47;;;24.98;42.76
73600;BME280;61877;48.246;9.220;2023-07-31T11:50:57;93968.31;;;25.69;40.37
73600;BME280;61877;48.246;9.220;2023-07-31T11:53:28;93953.44;;;25.25;41.59
73600;BME280;61877;48.246;9.220;2023-07-31T11:55:58;93953.88;;;25.52;43.73
73600;BME280;61877;48.246;9.220;2023-07-31T11:58:23;93949.38;;;25.99;39.26
73600;BME280;61877;48.246;9.220;2023-07-31T12:00:49;93945.44;;;26.25;39.63
73600;BME280;61877;48.246;9.220;2023-07-31T12:03:15;93936.84;;;26.74;38.90
73600;BME280;61877;48.246;9.220;2023-07-31T12:05:41;93927.59;;;26.80;40.40
73600;BME280;61877;48.246;9.220;2023-07-31T12:08:10;93920.91;;;26.81;36.76
73600;BME280;61877;48.246;9.220;2023-07-31T12:10:37;93919.63;;;26.95;37.40
73600;BME280;61877;48.246;9.220;2023-07-31T12:13:04;93915.94;;;25.88;38.53
73600;BME280;61877;48.246;9.220;2023-07-31T12:15:33;93926.25;;;25.97;38.75
73600;BME280;61877;48.246;9.220;2023-07-31T12:17:58;93908.19;;;25.71;41.20
73600;BME280;61877;48.246;9.220;2023-07-31T12:20:24;93921.84;;;25.74;40.61
73600;BME280;61877;48.246;9.220;2023-07-31T12:22:49;93900.09;;;25.92;38.35
73600;BME280;61877;48.246;9.220;2023-07-31T12:25:15;93908.47;;;25.35;39.63
73600;BME280;61877;48.246;9.220;2023-07-31T12:27:44;93903.00;;;25.48;38.89
73600;BME280;61877;48.246;9.220;2023-07-31T12:30:28;93895.88;;;25.21;40.09
73600;BME280;61877;48.246;9.220;2023-07-31T12:32:53;93897.53;;;25.31;43.06
73600;BME280;61877;48.246;9.220;2023-07-31T12:35:19;93898.84;;;25.56;42.17
73600;BME280;61877;48.246;9.220;2023-07-31T12:37:44;93897.69;;;25.94;41.34
73600;BME280;61877;48.246;9.220;2023-07-31T12:40:10;93885.63;;;26.29;39.36
73600;BME280;61877;48.246;9.220;2023-07-31T12:42:36;93883.91;;;26.57;37.89
73600;BME280;61877;48.246;9.220;2023-07-31T12:45:03;93892.72;;;26.52;36.02
73600;BME280;61877;48.246;9.220;2023-07-31T12:47:29;93894.16;;;25.81;37.04
73600;BME280;61877;48.246;9.220;2023-07-31T12:49:55;93882.81;;;25.79;37.63
73600;BME280;61877;48.246;9.220;2023-07-31T12:52:20;93873.13;;;25.50;41.13
73600;BME280;61877;48.246;9.220;2023-07-31T12:54:46;93866.97;;;25.71;39.04
73600;BME280;61877;48.246;9.220;2023-07-31T12:57:11;93868.22;;;25.00;38.80
73600;BME280;61877;48.246;9.220;2023-07-31T12:59:39;93859.38;;;25.62;38.68